sensor_id;sensor_type;location;lat;lon;timestamp;temperature;humidity
32614;DHT22;19031;51.400;6.770;2023-10-31T00:01:02;12.00;99.90
32614;DHT22;19031;51.400;6.770;2023-10-31T00:03:28;11.80;99.90
32614;DHT22;19031;51.400;6.770;2023-10-31T00:05:53;11.90;99.90
32614;DHT22;19031;51.400;6.770;2023-10-31T00:08:19;11.70;99.90
32614;DHT22;19031;51.400;6.770;2023-10-31T00:10:45;11.70;99.90
32614;DHT22;19031;51.400;6.770;2023-10-31T00:13:11;11.60;99.90
32614;DHT22;19031;51.400;6.770;2023-10-31T00:15:37;11.60;99.90
32614;DHT22;19031;51.400;6.770;2023-10-31T00:18:02;11.60;99.90
32614;DHT22;19031;51.400;6.770;2023-10-31T00:20:28;11.60;99.90
32614;DHT22;19031;51.400;6.770;2023-10-31T00:22:54;11.60;99.90
32614;DHT22;19031;51.400;6.770;2023-10-31T00:25:20;11.50;99.90
32614;DHT22;19031;51.400;6.770;2023-10-31T00:27:45;11.60;99.90
32614;DHT22;19031;51.400;6.770;2023-10-31T00:30:11;11.50;99.90
32614;DHT22;19031;51.400;6.770;2023-10-31T00:32:37;11.40;99.90
32614;DHT22;19031;51.400;6.770;2023-10-31T00:35:02;11.50;99.90
32614;DHT22;19031;51.400;6.770;2023-10-31T00:37:28;11.50;99.90
32614;DHT22;19031;51.400;6.770;2023-10-31T00:39:54;11.50;99.90
32614;DHT22;19031;51.400;6.770;2023-10-31T00:42:19;11.50;99.90
32614;DHT22;19031;51.400;6.770;2023-10-31T00:44:45;11.40;99.90
32614;DHT22;19031;51.400;6.770;2023-10-31T00:47:10;11.40;99.90
32614;DHT22;19031;51.400;6.770;2023-10-31T00:49:36;11.30;99.90
32614;DHT22;19031;51.400;6.770;2023-10-31T00:52:02;11.40;99.90
32614;DHT22;19031;51.400;6.770;2023-10-31T00:54:27;11.30;99.90
32614;DHT22;19031;51.400;6.770;2023-10-31T00:56:53;11.20;99.90
32614;DHT22;19031;51.400;6.770;2023-10-31T00:59:18;11.30;99.90
32614;DHT22;19031;51.400;6.770;2023-10-31T01:01:44;11.20;99.90
32614;DHT22;19031;51.400;6.770;2023-10-31T01:04:10;11.30;99.90
32614;DHT22;19031;51.400;6.770;2023-10-31T01:06:43;11.30;99.90
32614;DHT22;19031;51.400;6.770;2023-10-31T01:09:11;11.20;99.90
32614;DHT22;19031;51.400;6.770;2023-10-31T01:11:38;11.30;99.90
32614;DHT22;19031;51.400;6.770;2023-10-31T01:14:04;11.20;99.90
32614;DHT22;19031;51.400;6.770;2023-10-31T01:16:29;11.20;99.90
32614;DHT22;19031;51.400;6.770;2023-10-31T01:18:55;11.20;99.90
32614;DHT22;19031;51.400;6.770;2023-10-31T01:21:21;11.30;99.90
32614;DHT22;19031;51.400;6.770;2023-10-31T01:23:46;11.30;99.90
32614;DHT22;19031;51.400;6.770;2023-10-31T01:26:12;11.30;99.90
32614;DHT22;19031;51.400;6.770;2023-10-31T01:28:37;11.30;99.90
32614;DHT22;19031;51.400;6.770;2023-10-31T01:31:03;11.20;99.90
32614;DHT22;19031;51.400;6.770;2023-10-31T01:33:28;11.20;99.90
32614;DHT22;19031;51.400;6.770;2023-10-31T01:35:54;11.20;99.90
32614;DHT22;19031;51.400;6.770;2023-10-31T01:38:19;11.20;99.90
32614;DHT22;19031;51.400;6.770;2023-10-31T01:40:49;11.20;99.90
32614;DHT22;19031;51.400;6.770;2023-10-31T01:43:29;11.20;99.90
32614;DHT22;19031;51.400;6.770;2023-10-31T01:45:55;11.20;99.90
32614;DHT22;19031;51.400;6.770;2023-10-31T01:48:21;11.20;99.90
32614;DHT22;19031;51.400;6.770;2023-10-31T01:50:47;11.20;99.90
32614;DHT22;19031;51.400;6.770;2023-10-31T01:53:12;11.30;99.90
32614;DHT22;19031;51.400;6.770;2023-10-31T01:55:38;11.20;99.90
32614;DHT22;19031;51.400;6.770;2023-10-31T01:58:03;11.20;99.90
32614;DHT22;19031;51.400;6.770;2023-10-31T02:00:30;11.20;99.90
32614;DHT22;19031;51.400;6.770;2023-10-31T02:02:56;11.30;99.90
32614;DHT22;19031;51.400;6.770;2023-10-31T02:05:23;11.30;99.90
32614;DHT22;19031;51.400;6.770;2023-10-31T02:07:48;11.20;99.90
32614;DHT22;19031;51.400;6.770;2023-10-31T02:10:14;11.20;99.90
32614;DHT22;19031;51.400;6.770;2023-10-31T02:12:39;11.10;99.90
32614;DHT22;19031;51.400;6.770;2023-10-31T02:15:05;11.30;99.90
32614;DHT22;19031;51.400;6.770;2023-10-31T02:17:31;11.20;99.90
32614;DHT22;19031;51.400;6.770;2023-10-31T02:19:57;11.20;99.90
32614;DHT22;19031;51.400;6.770;2023-10-31T02:22:23;11.10;99.90
32614;DHT22;19031;51.400;6.770;2023-10-31T02:24:48;11.20;99.90
32614;DHT22;19031;51.400;6.770;2023-10-31T02:27:14;11.10;99.90
32614;DHT22;19031;51.400;6.770;2023-10-31T02:29:40;11.20;99.90
32614;DHT22;19031;51.400;6.770;2023-10-31T02:32:05;11.20;99.90
32614;DHT22;19031;51.400;6.770;2023-10-31T02:34:31;11.10;99.90
32614;DHT22;19031;51.400;6.770;2023-10-31T02:36:57;11.10;99.90
32614;DHT22;19031;51.400;6.770;2023-10-31T02:39:22;11.10;99.90
32614;DHT22;19031;51.400;6.770;2023-10-31T02:41:48;11.00;99.90
32614;DHT22;19031;51.400;6.770;2023-10-31T02:44:15;11.10;99.90
32614;DHT22;19031;51.400;6.770;2023-10-31T02:46:41;11.10;99.90
32614;DHT22;19031;51.400;6.770;2023-10-31T02:49:06;11.10;99.90
32614;DHT22;19031;51.400;6.770;2023-10-31T02:51:32;11.20;99.90
32614;DHT22;19031;51.400;6.770;2023-10-31T02:53:57;11.10;99.90
32614;DHT22;19031;51.400;6.770;2023-10-31T02:56:23;11.10;99.90
32614;DHT22;19031;51.400;6.770;2023-10-31T02:58:48;11.20;99.90
32614;DHT22;19031;51.400;6.770;2023-10-31T03:01:14;11.20;99.90
32614;DHT22;19031;51.400;6.770;2023-10-31T03:03:39;11.20;99.90
32614;DHT22;19031;51.400;6.770;2023-10-31T03:06:05;11.10;99.90
32614;DHT22;19031;51.400;6.770;2023-10-31T03:08:31;11.20;99.90
32614;DHT22;19031;51.400;6.770;2023-10-31T03:10:56;11.20;99.90
32614;DHT22;19031;51.400;6.770;2023-10-31T03:13:22;11.30;99.90
32614;DHT22;19031;51.400;6.770;2023-10-31T03:15:48;11.20;99.90
32614;DHT22;19031;51.400;6.770;2023-10-31T03:18:14;11.10;99.90
32614;DHT22;19031;51.400;6.770;2023-10-31T03:20:40;11.20;99.90
32614;DHT22;19031;51.400;6.770;2023-10-31T03:23:05;11.20;99.90
32614;DHT22;19031;51.400;6.770;2023-10-31T03:25:31;11.20;99.90
32614;DHT22;19031;51.400;6.770;2023-10-31T03:27:57;11.10;99.90
32614;DHT22;19031;51.400;6.770;2023-10-31T03:30:22;11.20;99.90
32614;DHT22;19031;51.400;6.770;2023-10-31T03:32:49;11.10;99.90
32614;DHT22;19031;51.400;6.770;2023-10-31T03:35:15;11.10;99.90
32614;DHT22;19031;51.400;6.770;2023-10-31T03:37:40;11.10;99.90
32614;DHT22;19031;51.400;6.770;2023-10-31T03:40:09;11.00;99.90
32614;DHT22;19031;51.400;6.770;2023-10-31T03:42:35;11.10;99.90
32614;DHT22;19031;51.400;6.770;2023-10-31T03:45:01;11.10;99.90
32614;DHT22;19031;51.400;6.770;2023-10-31T03:47:26;11.10;99.90
32614;DHT22;19031;51.400;6.770;2023-10-31T03:49:52;11.10;99.90
32614;DHT22;19031;51.400;6.770;2023-10-31T03:52:17;11.10;99.90
32614;DHT22;19031;51.400;6.770;2023-10-31T03:54:45;11.10;99.90
32614;DHT22;19031;51.400;6.770;2023-10-31T03:57:10;11.00;99.90
32614;DHT22;19031;51.400;6.770;2023-10-31T03:59:37;11.00;99.90
32614;DHT22;19031;51.400;6.770;2023-10-31T04:02:03;11.10;99.90
32614;DHT22;19031;51.400;6.770;2023-10-31T04:04:29;11.10;99.90
32614;DHT22;19031;51.400;6.770;2023-10-31T04:06:57;11.10;99.90
32614;DHT22;19031;51.400;6.770;2023-10-31T04:09:22;11.10;99.90
32614;DHT22;19031;51.400;6.770;2023-10-31T04:11:48;11.10;99.90
32614;DHT22;19031;51.400;6.770;2023-10-31T04:14:14;10.90;99.90
32614;DHT22;19031;51.400;6.770;2023-10-31T04:16:40;11.00;99.90
32614;DHT22;19031;51.400;6.770;2023-10-31T04:19:11;11.00;99.90
32614;DHT22;19031;51.400;6.770;2023-10-31T04:21:37;10.90;99.90
32614;DHT22;19031;51.400;6.770;2023-10-31T04:24:03;11.00;99.90
32614;DHT22;19031;51.400;6.770;2023-10-31T04:26:29;11.00;99.90
32614;DHT22;19031;51.400;6.770;2023-10-31T04:28:55;11.00;99.90
32614;DHT22;19031;51.400;6.770;2023-10-31T04:31:20;11.00;99.90
32614;DHT22;19031;51.400;6.770;2023-10-31T04:33:46;11.00;99.90
32614;DHT22;19031;51.400;6.770;2023-10-31T04:36:11;10.90;99.90
32614;DHT22;19031;51.400;6.770;2023-10-31T04:38:37;11.00;99.90
32614;DHT22;19031;51.400;6.770;2023-10-31T04:41:03;11.00;99.90
32614;DHT22;19031;51.400;6.770;2023-10-31T04:43:29;11.00;99.90
32614;DHT22;19031;51.400;6.770;2023-10-31T04:45:54;11.00;99.90
32614;DHT22;19031;51.400;6.770;2023-10-31T04:48:20;11.00;99.90
32614;DHT22;19031;51.400;6.770;2023-10-31T04:50:46;11.10;99.90
32614;DHT22;19031;51.400;6.770;2023-10-31T04:53:11;11.00;99.90
32614;DHT22;19031;51.400;6.770;2023-10-31T04:55:37;11.10;99.90
32614;DHT22;19031;51.400;6.770;2023-10-31T04:58:02;11.00;99.90
32614;DHT22;19031;51.400;6.770;2023-10-31T05:00:28;11.00;99.90
32614;DHT22;19031;51.400;6.770;2023-10-31T05:02:53;11.00;99.90
32614;DHT22;19031;51.400;6.770;2023-10-31T05:05:19;11.10;99.90
32614;DHT22;19031;51.400;6.770;2023-10-31T05:07:45;10.90;99.90
32614;DHT22;19031;51.400;6.770;2023-10-31T05:10:10;11.00;99.90
32614;DHT22;19031;51.400;6.770;2023-10-31T05:12:36;10.90;99.90
32614;DHT22;19031;51.400;6.770;2023-10-31T05:15:02;10.90;99.90
32614;DHT22;19031;51.400;6.770;2023-10-31T05:17:28;10.90;99.90
32614;DHT22;19031;51.400;6.770;2023-10-31T05:19:53;11.00;99.90
32614;DHT22;19031;51.400;6.770;2023-10-31T05:22:19;11.10;99.90
32614;DHT22;19031;51.400;6.770;2023-10-31T05:24:45;11.00;99.90
32614;DHT22;19031;51.400;6.770;2023-10-31T05:27:10;11.10;99.90
32614;DHT22;19031;51.400;6.770;2023-10-31T05:29:38;11.10;99.90
32614;DHT22;19031;51.400;6.770;2023-10-31T05:32:04;11.00;99.90
32614;DHT22;19031;51.400;6.770;2023-10-31T05:34:29;11.00;99.90
32614;DHT22;19031;51.400;6.770;2023-10-31T05:36:55;11.00;99.90
32614;DHT22;19031;51.400;6.770;2023-10-31T05:39:20;10.90;99.90
32614;DHT22;19031;51.400;6.770;2023-10-31T05:41:46;10.90;99.90
32614;DHT22;19031;51.400;6.770;2023-10-31T05:44:11;10.90;99.90
32614;DHT22;19031;51.400;6.770;2023-10-31T05:46:38;10.90;99.90
32614;DHT22;19031;51.400;6.770;2023-10-31T05:49:06;10.90;99.90
32614;DHT22;19031;51.400;6.770;2023-10-31T05:51:32;11.00;99.90
32614;DHT22;19031;51.400;6.770;2023-10-31T05:53:59;10.90;99.90
32614;DHT22;19031;51.400;6.770;2023-10-31T05:56:25;10.90;99.90
32614;DHT22;19031;51.400;6.770;2023-10-31T05:58:50;10.90;99.90
32614;DHT22;19031;51.400;6.770;2023-10-31T06:01:16;10.80;99.90
32614;DHT22;19031;51.400;6.770;2023-10-31T06:03:45;10.80;99.90
32614;DHT22;19031;51.400;6.770;2023-10-31T06:06:12;10.90;99.90
32614;DHT22;19031;51.400;6.770;2023-10-31T06:08:38;10.80;99.90
32614;DHT22;19031;51.400;6.770;2023-10-31T06:11:04;10.90;99.90
32614;DHT22;19031;51.400;6.770;2023-10-31T06:13:30;10.90;99.90
32614;DHT22;19031;51.400;6.770;2023-10-31T06:15:57;10.80;99.90
32614;DHT22;19031;51.400;6.770;2023-10-31T06:18:26;10.80;99.90
32614;DHT22;19031;51.400;6.770;2023-10-31T06:20:52;10.80;99.90
32614;DHT22;19031;51.400;6.770;2023-10-31T06:23:18;10.80;99.90
32614;DHT22;19031;51.400;6.770;2023-10-31T06:25:44;10.90;99.90
32614;DHT22;19031;51.400;6.770;2023-10-31T06:28:09;10.80;99.90
32614;DHT22;19031;51.400;6.770;2023-10-31T06:30:35;10.80;99.90
32614;DHT22;19031;51.400;6.770;2023-10-31T06:33:01;10.80;99.90
32614;DHT22;19031;51.400;6.770;2023-10-31T06:35:27;10.80;99.90
32614;DHT22;19031;51.400;6.770;2023-10-31T06:37:55;10.80;99.90
32614;DHT22;19031;51.400;6.770;2023-10-31T06:40:21;10.80;99.90
32614;DHT22;19031;51.400;6.770;2023-10-31T06:42:47;10.80;99.90
32614;DHT22;19031;51.400;6.770;2023-10-31T06:45:12;10.90;99.90
32614;DHT22;19031;51.400;6.770;2023-10-31T06:47:38;10.90;99.90
32614;DHT22;19031;51.400;6.770;2023-10-31T06:50:04;10.90;99.90
32614;DHT22;19031;51.400;6.770;2023-10-31T06:52:30;11.00;99.90
32614;DHT22;19031;51.400;6.770;2023-10-31T06:54:55;11.00;99.90
32614;DHT22;19031;51.400;6.770;2023-10-31T06:57:21;11.00;99.90
32614;DHT22;19031;51.400;6.770;2023-10-31T06:59:46;11.00;99.90
32614;DHT22;19031;51.400;6.770;2023-10-31T07:02:12;11.10;99.90
32614;DHT22;19031;51.400;6.770;2023-10-31T07:04:38;11.00;99.90
32614;DHT22;19031;51.400;6.770;2023-10-31T07:07:03;11.10;99.90
32614;DHT22;19031;51.400;6.770;2023-10-31T07:09:29;11.10;99.90
32614;DHT22;19031;51.400;6.770;2023-10-31T07:11:54;11.00;99.90
32614;DHT22;19031;51.400;6.770;2023-10-31T07:14:20;11.10;99.90
32614;DHT22;19031;51.400;6.770;2023-10-31T07:16:45;11.10;99.90
32614;DHT22;19031;51.400;6.770;2023-10-31T07:19:11;11.20;99.90
32614;DHT22;19031;51.400;6.770;2023-10-31T07:21:37;11.20;99.90
32614;DHT22;19031;51.400;6.770;2023-10-31T07:24:02;11.10;99.90
32614;DHT22;19031;51.400;6.770;2023-10-31T07:26:28;11.10;99.90
32614;DHT22;19031;51.400;6.770;2023-10-31T07:28:54;11.20;99.90
32614;DHT22;19031;51.400;6.770;2023-10-31T07:31:19;11.20;99.90
32614;DHT22;19031;51.400;6.770;2023-10-31T07:33:45;11.20;99.90
32614;DHT22;19031;51.400;6.770;2023-10-31T07:36:11;11.30;99.90
32614;DHT22;19031;51.400;6.770;2023-10-31T07:38:37;11.30;99.90
32614;DHT22;19031;51.400;6.770;2023-10-31T07:41:03;11.20;99.90
32614;DHT22;19031;51.400;6.770;2023-10-31T07:43:28;11.30;99.90
32614;DHT22;19031;51.400;6.770;2023-10-31T07:45:54;11.20;99.90
32614;DHT22;19031;51.400;6.770;2023-10-31T07:48:20;11.20;99.90
32614;DHT22;19031;51.400;6.770;2023-10-31T07:50:45;11.20;99.90
32614;DHT22;19031;51.400;6.770;2023-10-31T07:53:11;11.30;99.90
32614;DHT22;19031;51.400;6.770;2023-10-31T07:55:36;11.30;99.90
32614;DHT22;19031;51.400;6.770;2023-10-31T07:58:02;11.40;99.90
32614;DHT22;19031;51.400;6.770;2023-10-31T08:00:27;11.40;99.90
32614;DHT22;19031;51.400;6.770;2023-10-31T08:02:53;11.40;99.90
32614;DHT22;19031;51.400;6.770;2023-10-31T08:05:18;11.40;99.90
32614;DHT22;19031;51.400;6.770;2023-10-31T08:07:44;11.40;99.90
32614;DHT22;19031;51.400;6.770;2023-10-31T08:10:10;11.30;99.90
32614;DHT22;19031;51.400;6.770;2023-10-31T08:12:35;11.30;99.90
32614;DHT22;19031;51.400;6.770;2023-10-31T08:15:02;11.40;99.90
32614;DHT22;19031;51.400;6.770;2023-10-31T08:17:27;11.30;99.90
32614;DHT22;19031;51.400;6.770;2023-10-31T08:19:53;11.40;99.90
32614;DHT22;19031;51.400;6.770;2023-10-31T08:22:18;11.40;99.90
32614;DHT22;19031;51.400;6.770;2023-10-31T08:24:44;11.40;99.90
32614;DHT22;19031;51.400;6.770;2023-10-31T08:27:10;11.50;99.90
32614;DHT22;19031;51.400;6.770;2023-10-31T08:29:36;11.50;99.90
32614;DHT22;19031;51.400;6.770;2023-10-31T08:32:02;11.70;99.90
32614;DHT22;19031;51.400;6.770;2023-10-31T08:34:27;11.70;99.90
32614;DHT22;19031;51.400;6.770;2023-10-31T08:36:53;11.80;99.90
32614;DHT22;19031;51.400;6.770;2023-10-31T08:39:19;12.00;99.90
32614;DHT22;19031;51.400;6.770;2023-10-31T08:41:55;11.90;99.90
32614;DHT22;19031;51.400;6.770;2023-10-31T08:44:21;12.00;99.90
32614;DHT22;19031;51.400;6.770;2023-10-31T08:46:47;12.10;99.90
32614;DHT22;19031;51.400;6.770;2023-10-31T08:49:13;12.00;99.90
32614;DHT22;19031;51.400;6.770;2023-10-31T08:51:39;12.10;99.90
32614;DHT22;19031;51.400;6.770;2023-10-31T08:54:05;12.00;99.90
32614;DHT22;19031;51.400;6.770;2023-10-31T08:56:31;12.10;99.90
32614;DHT22;19031;51.400;6.770;2023-10-31T08:58:56;12.00;99.90
32614;DHT22;19031;51.400;6.770;2023-10-31T09:01:22;12.10;99.90
32614;DHT22;19031;51.400;6.770;2023-10-31T09:03:48;12.00;99.90
32614;DHT22;19031;51.400;6.770;2023-10-31T09:06:14;12.10;99.90
32614;DHT22;19031;51.400;6.770;2023-10-31T09:08:39;12.10;99.90
32614;DHT22;19031;51.400;6.770;2023-10-31T09:11:05;12.30;99.90
32614;DHT22;19031;51.400;6.770;2023-10-31T09:13:32;12.30;99.90
32614;DHT22;19031;51.400;6.770;2023-10-31T09:16:01;12.30;99.90
32614;DHT22;19031;51.400;6.770;2023-10-31T09:18:27;12.40;99.90
32614;DHT22;19031;51.400;6.770;2023-10-31T09:20:53;12.30;99.90
32614;DHT22;19031;51.400;6.770;2023-10-31T09:23:19;12.30;99.90
32614;DHT22;19031;51.400;6.770;2023-10-31T09:25:45;12.40;99.90
32614;DHT22;19031;51.400;6.770;2023-10-31T09:28:10;12.40;99.90
32614;DHT22;19031;51.400;6.770;2023-10-31T09:30:36;12.40;99.90
32614;DHT22;19031;51.400;6.770;2023-10-31T09:33:02;12.40;99.90
32614;DHT22;19031;51.400;6.770;2023-10-31T09:35:28;12.60;99.90
32614;DHT22;19031;51.400;6.770;2023-10-31T09:37:54;12.60;99.90
32614;DHT22;19031;51.400;6.770;2023-10-31T09:40:20;12.60;99.90
32614;DHT22;19031;51.400;6.770;2023-10-31T09:42:46;12.70;99.90
32614;DHT22;19031;51.400;6.770;2023-10-31T09:45:12;12.80;99.90
32614;DHT22;19031;51.400;6.770;2023-10-31T09:47:38;12.90;99.90
32614;DHT22;19031;51.400;6.770;2023-10-31T09:50:04;13.10;99.90
32614;DHT22;19031;51.400;6.770;2023-10-31T09:52:30;13.00;99.90
32614;DHT22;19031;51.400;6.770;2023-10-31T09:54:56;13.00;99.90
32614;DHT22;19031;51.400;6.770;2023-10-31T09:57:21;13.00;99.90
32614;DHT22;19031;51.400;6.770;2023-10-31T09:59:47;13.10;99.90
32614;DHT22;19031;51.400;6.770;2023-10-31T10:02:13;13.00;99.90
32614;DHT22;19031;51.400;6.770;2023-10-31T10:04:39;13.00;99.90
32614;DHT22;19031;51.400;6.770;2023-10-31T10:07:05;13.10;99.90
32614;DHT22;19031;51.400;6.770;2023-10-31T10:09:31;13.10;99.90
32614;DHT22;19031;51.400;6.770;2023-10-31T10:11:59;13.00;99.90
32614;DHT22;19031;51.400;6.770;2023-10-31T10:14:26;13.00;99.90
32614;DHT22;19031;51.400;6.770;2023-10-31T10:16:56;12.90;99.90
32614;DHT22;19031;51.400;6.770;2023-10-31T10:19:23;12.90;99.90
32614;DHT22;19031;51.400;6.770;2023-10-31T10:21:54;12.90;99.90
32614;DHT22;19031;51.400;6.770;2023-10-31T10:24:21;13.00;99.90
32614;DHT22;19031;51.400;6.770;2023-10-31T10:26:47;13.30;99.90
32614;DHT22;19031;51.400;6.770;2023-10-31T10:29:13;13.40;99.90
32614;DHT22;19031;51.400;6.770;2023-10-31T10:31:39;13.50;99.90
32614;DHT22;19031;51.400;6.770;2023-10-31T10:34:06;13.50;99.90
32614;DHT22;19031;51.400;6.770;2023-10-31T10:36:33;13.90;99.90
32614;DHT22;19031;51.400;6.770;2023-10-31T10:38:59;14.10;99.90
32614;DHT22;19031;51.400;6.770;2023-10-31T10:41:26;14.00;99.90
32614;DHT22;19031;51.400;6.770;2023-10-31T10:43:58;14.00;99.90
32614;DHT22;19031;51.400;6.770;2023-10-31T10:46:29;14.10;99.90
32614;DHT22;19031;51.400;6.770;2023-10-31T10:48:58;14.10;99.90
32614;DHT22;19031;51.400;6.770;2023-10-31T10:51:29;14.20;99.90
32614;DHT22;19031;51.400;6.770;2023-10-31T10:54:11;14.10;99.90
32614;DHT22;19031;51.400;6.770;2023-10-31T10:56:54;14.20;99.90
32614;DHT22;19031;51.400;6.770;2023-10-31T10:59:33;14.10;99.90
32614;DHT22;19031;51.400;6.770;2023-10-31T11:02:03;14.00;99.90
32614;DHT22;19031;51.400;6.770;2023-10-31T11:04:31;14.00;99.90
32614;DHT22;19031;51.400;6.770;2023-10-31T11:06:57;13.90;99.90
32614;DHT22;19031;51.400;6.770;2023-10-31T11:09:23;13.90;99.90
32614;DHT22;19031;51.400;6.770;2023-10-31T11:11:50;13.80;99.90
32614;DHT22;19031;51.400;6.770;2023-10-31T11:14:17;14.00;99.90
32614;DHT22;19031;51.400;6.770;2023-10-31T11:16:55;14.00;99.90
32614;DHT22;19031;51.400;6.770;2023-10-31T11:19:23;14.00;99.90
32614;DHT22;19031;51.400;6.770;2023-10-31T11:21:59;14.10;99.90
32614;DHT22;19031;51.400;6.770;2023-10-31T11:24:31;14.20;99.90
32614;DHT22;19031;51.400;6.770;2023-10-31T11:27:02;14.20;99.90
32614;DHT22;19031;51.400;6.770;2023-10-31T11:29:28;14.20;99.90
32614;DHT22;19031;51.400;6.770;2023-10-31T11:31:56;14.40;99.90
32614;DHT22;19031;51.400;6.770;2023-10-31T11:34:23;14.30;99.90
32614;DHT22;19031;51.400;6.770;2023-10-31T11:36:51;14.20;99.90
32614;DHT22;19031;51.400;6.770;2023-10-31T11:39:21;14.00;99.90
32614;DHT22;19031;51.400;6.770;2023-10-31T11:41:55;14.00;99.90
32614;DHT22;19031;51.400;6.770;2023-10-31T11:44:27;13.70;99.90
32614;DHT22;19031;51.400;6.770;2023-10-31T11:46:53;13.80;99.90
32614;DHT22;19031;51.400;6.770;2023-10-31T11:49:46;13.80;99.90
32614;DHT22;19031;51.400;6.770;2023-10-31T11:52:17;13.80;99.90
32614;DHT22;19031;51.400;6.770;2023-10-31T11:54:43;13.90;99.90
32614;DHT22;19031;51.400;6.770;2023-10-31T11:57:09;14.10;99.90
32614;DHT22;19031;51.400;6.770;2023-10-31T11:59:38;14.30;99.90
32614;DHT22;19031;51.400;6.770;2023-10-31T12:02:16;14.30;99.90
32614;DHT22;19031;51.400;6.770;2023-10-31T12:04:43;14.40;99.90
32614;DHT22;19031;51.400;6.770;2023-10-31T12:07:09;14.30;99.90
32614;DHT22;19031;51.400;6.770;2023-10-31T12:09:48;14.30;99.90
32614;DHT22;19031;51.400;6.770;2023-10-31T12:12:14;14.10;99.90
32614;DHT22;19031;51.400;6.770;2023-10-31T12:14:40;14.10;99.90
32614;DHT22;19031;51.400;6.770;2023-10-31T12:17:06;14.20;99.90
32614;DHT22;19031;51.400;6.770;2023-10-31T12:19:33;14.00;99.90
32614;DHT22;19031;51.400;6.770;2023-10-31T12:21:58;14.20;99.90
32614;DHT22;19031;51.400;6.770;2023-10-31T12:24:24;14.20;99.90
32614;DHT22;19031;51.400;6.770;2023-10-31T12:26:50;14.30;99.90
32614;DHT22;19031;51.400;6.770;2023-10-31T12:29:19;14.50;99.90
32614;DHT22;19031;51.400;6.770;2023-10-31T12:31:49;14.60;99.90
32614;DHT22;19031;51.400;6.770;2023-10-31T12:34:18;14.80;99.90
32614;DHT22;19031;51.400;6.770;2023-10-31T12:36:46;14.90;99.90
32614;DHT22;19031;51.400;6.770;2023-10-31T12:39:12;15.00;99.90
32614;DHT22;19031;51.400;6.770;2023-10-31T12:41:39;14.80;99.90
32614;DHT22;19031;51.400;6.770;2023-10-31T12:44:06;14.90;99.90
32614;DHT22;19031;51.400;6.770;2023-10-31T12:46:39;14.80;99.90
32614;DHT22;19031;51.400;6.770;2023-10-31T12:49:20;14.90;99.90
32614;DHT22;19031;51.400;6.770;2023-10-31T12:52:12;14.90;99.90
32614;DHT22;19031;51.400;6.770;2023-10-31T12:54:38;14.90;99.90
32614;DHT22;19031;51.400;6.770;2023-10-31T12:57:06;15.00;99.90
32614;DHT22;19031;51.400;6.770;2023-10-31T12:59:33;15.00;99.90
32614;DHT22;19031;51.400;6.770;2023-10-31T13:01:59;14.90;99.90
32614;DHT22;19031;51.400;6.770;2023-10-31T13:04:32;14.80;99.90
32614;DHT22;19031;51.400;6.770;2023-10-31T13:07:05;14.90;99.90
32614;DHT22;19031;51.400;6.770;2023-10-31T13:09:32;15.10;99.90
32614;DHT22;19031;51.400;6.770;2023-10-31T13:12:02;15.10;99.90
32614;DHT22;19031;51.400;6.770;2023-10-31T13:14:29;15.10;99.90
32614;DHT22;19031;51.400;6.770;2023-10-31T13:16:54;15.10;99.90
32614;DHT22;19031;51.400;6.770;2023-10-31T13:19:20;15.00;99.90
32614;DHT22;19031;51.400;6.770;2023-10-31T13:21:47;14.90;99.90
32614;DHT22;19031;51.400;6.770;2023-10-31T13:24:13;15.10;99.90
32614;DHT22;19031;51.400;6.770;2023-10-31T13:26:38;15.10;99.90
32614;DHT22;19031;51.400;6.770;2023-10-31T13:29:04;15.00;99.90
32614;DHT22;19031;51.400;6.770;2023-10-31T13:31:30;14.90;99.90
32614;DHT22;19031;51.400;6.770;2023-10-31T13:33:55;14.80;99.90
32614;DHT22;19031;51.400;6.770;2023-10-31T13:36:21;14.60;99.90
32614;DHT22;19031;51.400;6.770;2023-10-31T13:38:47;14.50;99.90
32614;DHT22;19031;51.400;6.770;2023-10-31T13:41:14;14.40;99.90
32614;DHT22;19031;51.400;6.770;2023-10-31T13:43:40;14.20;99.90
32614;DHT22;19031;51.400;6.770;2023-10-31T13:46:05;14.10;99.90
32614;DHT22;19031;51.400;6.770;2023-10-31T13:48:31;14.00;99.90
32614;DHT22;19031;51.400;6.770;2023-10-31T13:50:57;14.00;99.90
32614;DHT22;19031;51.400;6.770;2023-10-31T13:53:23;14.00;99.90
32614;DHT22;19031;51.400;6.770;2023-10-31T13:55:48;14.00;99.90
32614;DHT22;19031;51.400;6.770;2023-10-31T13:58:14;14.00;99.90
32614;DHT22;19031;51.400;6.770;2023-10-31T14:00:40;14.10;99.90
32614;DHT22;19031;51.400;6.770;2023-10-31T14:03:06;14.30;99.90
32614;DHT22;19031;51.400;6.770;2023-10-31T14:05:33;14.00;99.90
32614;DHT22;19031;51.400;6.770;2023-10-31T14:07:59;14.50;99.90
32614;DHT22;19031;51.400;6.770;2023-10-31T14:10:25;14.70;99.90
32614;DHT22;19031;51.400;6.770;2023-10-31T14:12:52;14.20;99.90
32614;DHT22;19031;51.400;6.770;2023-10-31T14:15:18;14.10;99.90
32614;DHT22;19031;51.400;6.770;2023-10-31T14:17:43;13.90;99.90
32614;DHT22;19031;51.400;6.770;2023-10-31T14:20:10;13.90;99.90
32614;DHT22;19031;51.400;6.770;2023-10-31T14:22:36;13.80;99.90
32614;DHT22;19031;51.400;6.770;2023-10-31T14:25:01;13.90;99.90
32614;DHT22;19031;51.400;6.770;2023-10-31T14:27:29;13.80;99.90
32614;DHT22;19031;51.400;6.770;2023-10-31T14:29:55;13.80;99.90
32614;DHT22;19031;51.400;6.770;2023-10-31T14:32:20;13.70;99.90
32614;DHT22;19031;51.400;6.770;2023-10-31T14:34:46;13.70;99.90
32614;DHT22;19031;51.400;6.770;2023-10-31T14:37:12;13.70;99.90
32614;DHT22;19031;51.400;6.770;2023-10-31T14:39:38;13.80;99.90
32614;DHT22;19031;51.400;6.770;2023-10-31T14:42:04;13.90;99.90
32614;DHT22;19031;51.400;6.770;2023-10-31T14:44:29;13.90;99.90
32614;DHT22;19031;51.400;6.770;2023-10-31T14:46:55;13.80;99.90
32614;DHT22;19031;51.400;6.770;2023-10-31T14:49:21;13.90;99.90
32614;DHT22;19031;51.400;6.770;2023-10-31T14:51:47;14.00;99.90
32614;DHT22;19031;51.400;6.770;2023-10-31T14:54:12;13.90;99.90
32614;DHT22;19031;51.400;6.770;2023-10-31T14:56:38;14.00;99.90
32614;DHT22;19031;51.400;6.770;2023-10-31T14:59:04;13.80;99.90
32614;DHT22;19031;51.400;6.770;2023-10-31T15:01:32;13.80;99.90
32614;DHT22;19031;51.400;6.770;2023-10-31T15:03:58;13.80;99.90
32614;DHT22;19031;51.400;6.770;2023-10-31T15:06:24;13.70;99.90
32614;DHT22;19031;51.400;6.770;2023-10-31T15:08:49;13.70;99.90
32614;DHT22;19031;51.400;6.770;2023-10-31T15:11:15;13.60;99.90
32614;DHT22;19031;51.400;6.770;2023-10-31T15:13:42;13.50;99.90
32614;DHT22;19031;51.400;6.770;2023-10-31T15:16:08;13.40;99.90
32614;DHT22;19031;51.400;6.770;2023-10-31T15:18:34;13.50;99.90
32614;DHT22;19031;51.400;6.770;2023-10-31T15:20:59;13.40;99.90
32614;DHT22;19031;51.400;6.770;2023-10-31T15:23:26;13.30;99.90
32614;DHT22;19031;51.400;6.770;2023-10-31T15:25:56;13.30;99.90